sensor_id;sensor_type;location;lat;lon;timestamp;P1;durP1;ratioP1;P2;durP2;ratioP2
10845;SDS011;5476;51.540;7.186;2022-09-09T00:02:26;1.88;;;1.10;;
10845;SDS011;5476;51.540;7.186;2022-09-09T00:04:58;2.25;;;1.00;;
10845;SDS011;5476;51.540;7.186;2022-09-09T00:07:28;1.85;;;1.20;;
10845;SDS011;5476;51.540;7.186;2022-09-09T00:10:04;2.35;;;1.33;;
10845;SDS011;5476;51.540;7.186;2022-09-09T00:12:42;1.90;;;1.10;;
10845;SDS011;5476;51.540;7.186;2022-09-09T00:15:18;0.95;;;0.95;;
10845;SDS011;5476;51.540;7.186;2022-09-09T00:17:50;2.78;;;1.20;;
10845;SDS011;5476;51.540;7.186;2022-09-09T00:20:20;2.78;;;1.60;;
10845;SDS011;5476;51.540;7.186;2022-09-09T00:22:53;3.13;;;1.40;;
10845;SDS011;5476;51.540;7.186;2022-09-09T00:25:23;2.58;;;1.50;;
10845;SDS011;5476;51.540;7.186;2022-09-09T00:27:56;2.03;;;1.50;;
10845;SDS011;5476;51.540;7.186;2022-09-09T00:30:23;1.45;;;1.10;;
10845;SDS011;5476;51.540;7.186;2022-09-09T00:32:54;1.52;;;0.90;;
10845;SDS011;5476;51.540;7.186;2022-09-09T00:35:26;2.40;;;1.00;;
10845;SDS011;5476;51.540;7.186;2022-09-09T00:37:57;1.85;;;1.15;;
10845;SDS011;5476;51.540;7.186;2022-09-09T00:40:29;1.88;;;1.10;;
10845;SDS011;5476;51.540;7.186;2022-09-09T00:43:03;3.20;;;1.60;;
10845;SDS011;5476;51.540;7.186;2022-09-09T00:45:43;1.80;;;1.30;;
10845;SDS011;5476;51.540;7.186;2022-09-09T00:48:34;2.90;;;1.30;;
10845;SDS011;5476;51.540;7.186;2022-09-09T00:51:09;2.95;;;1.65;;
10845;SDS011;5476;51.540;7.186;2022-09-09T00:53:51;1.00;;;1.00;;
10845;SDS011;5476;51.540;7.186;2022-09-09T00:56:20;2.92;;;1.23;;
10845;SDS011;5476;51.540;7.186;2022-09-09T00:58:51;1.55;;;1.25;;
10845;SDS011;5476;51.540;7.186;2022-09-09T01:01:24;1.23;;;0.95;;
10845;SDS011;5476;51.540;7.186;2022-09-09T01:03:53;1.02;;;0.93;;
10845;SDS011;5476;51.540;7.186;2022-09-09T01:06:21;1.60;;;0.98;;
10845;SDS011;5476;51.540;7.186;2022-09-09T01:09:02;4.32;;;1.10;;
10845;SDS011;5476;51.540;7.186;2022-09-09T01:11:37;2.00;;;1.30;;
10845;SDS011;5476;51.540;7.186;2022-09-09T01:14:19;1.65;;;1.00;;
10845;SDS011;5476;51.540;7.186;2022-09-09T01:16:53;2.45;;;1.10;;
10845;SDS011;5476;51.540;7.186;2022-09-09T01:19:27;2.25;;;1.10;;
10845;SDS011;5476;51.540;7.186;2022-09-09T01:22:01;2.17;;;1.20;;
10845;SDS011;5476;51.540;7.186;2022-09-09T01:24:33;3.30;;;1.33;;
10845;SDS011;5476;51.540;7.186;2022-09-09T01:27:05;2.50;;;1.60;;
10845;SDS011;5476;51.540;7.186;2022-09-09T01:29:33;2.90;;;2.03;;
10845;SDS011;5476;51.540;7.186;2022-09-09T01:32:01;4.07;;;1.98;;
10845;SDS011;5476;51.540;7.186;2022-09-09T01:34:49;4.07;;;1.77;;
10845;SDS011;5476;51.540;7.186;2022-09-09T01:37:17;3.25;;;1.85;;
10845;SDS011;5476;51.540;7.186;2022-09-09T01:39:44;3.53;;;1.92;;
10845;SDS011;5476;51.540;7.186;2022-09-09T01:42:13;3.40;;;2.03;;
10845;SDS011;5476;51.540;7.186;2022-09-09T01:44:41;3.50;;;1.70;;
10845;SDS011;5476;51.540;7.186;2022-09-09T01:47:08;3.55;;;2.00;;
10845;SDS011;5476;51.540;7.186;2022-09-09T01:49:36;4.85;;;2.00;;
10845;SDS011;5476;51.540;7.186;2022-09-09T01:52:03;2.78;;;2.00;;
10845;SDS011;5476;51.540;7.186;2022-09-09T01:54:31;4.95;;;2.80;;
10845;SDS011;5476;51.540;7.186;2022-09-09T01:57:01;3.80;;;2.28;;
10845;SDS011;5476;51.540;7.186;2022-09-09T01:59:41;4.28;;;2.38;;
10845;SDS011;5476;51.540;7.186;2022-09-09T02:02:26;3.13;;;2.22;;
10845;SDS011;5476;51.540;7.186;2022-09-09T02:04:56;4.00;;;2.10;;
10845;SDS011;5476;51.540;7.186;2022-09-09T02:07:35;3.60;;;2.17;;
10845;SDS011;5476;51.540;7.186;2022-09-09T02:10:06;3.58;;;2.10;;
10845;SDS011;5476;51.540;7.186;2022-09-09T02:12:38;4.38;;;2.58;;
10845;SDS011;5476;51.540;7.186;2022-09-09T02:15:11;5.10;;;2.58;;
10845;SDS011;5476;51.540;7.186;2022-09-09T02:17:45;4.60;;;2.35;;
10845;SDS011;5476;51.540;7.186;2022-09-09T02:20:14;4.97;;;2.60;;
10845;SDS011;5476;51.540;7.186;2022-09-09T02:22:43;2.90;;;2.20;;
10845;SDS011;5476;51.540;7.186;2022-09-09T02:25:13;3.13;;;2.47;;
10845;SDS011;5476;51.540;7.186;2022-09-09T02:27:43;3.13;;;2.42;;
10845;SDS011;5476;51.540;7.186;2022-09-09T02:30:14;3.97;;;2.75;;
10845;SDS011;5476;51.540;7.186;2022-09-09T02:32:42;8.63;;;2.47;;
10845;SDS011;5476;51.540;7.186;2022-09-09T02:35:12;3.17;;;2.20;;
10845;SDS011;5476;51.540;7.186;2022-09-09T02:37:41;9.85;;;2.47;;
10845;SDS011;5476;51.540;7.186;2022-09-09T02:40:11;2.63;;;2.13;;
10845;SDS011;5476;51.540;7.186;2022-09-09T02:42:41;4.55;;;2.22;;
10845;SDS011;5476;51.540;7.186;2022-09-09T02:45:09;3.80;;;2.40;;
10845;SDS011;5476;51.540;7.186;2022-09-09T02:47:40;4.78;;;2.80;;
10845;SDS011;5476;51.540;7.186;2022-09-09T02:50:17;3.00;;;2.30;;
10845;SDS011;5476;51.540;7.186;2022-09-09T02:52:52;3.92;;;2.40;;
10845;SDS011;5476;51.540;7.186;2022-09-09T02:55:29;4.22;;;2.65;;
10845;SDS011;5476;51.540;7.186;2022-09-09T02:58:05;4.68;;;2.83;;
10845;SDS011;5476;51.540;7.186;2022-09-09T03:00:36;4.30;;;2.80;;
10845;SDS011;5476;51.540;7.186;2022-09-09T03:03:06;4.07;;;2.92;;
10845;SDS011;5476;51.540;7.186;2022-09-09T03:05:34;5.28;;;3.33;;
10845;SDS011;5476;51.540;7.186;2022-09-09T03:08:01;4.15;;;2.63;;
10845;SDS011;5476;51.540;7.186;2022-09-09T03:10:30;4.47;;;3.03;;
10845;SDS011;5476;51.540;7.186;2022-09-09T03:12:57;4.30;;;3.10;;
10845;SDS011;5476;51.540;7.186;2022-09-09T03:15:25;5.88;;;3.10;;
10845;SDS011;5476;51.540;7.186;2022-09-09T03:17:54;4.45;;;2.88;;
10845;SDS011;5476;51.540;7.186;2022-09-09T03:20:23;5.95;;;2.78;;
10845;SDS011;5476;51.540;7.186;2022-09-09T03:22:51;6.53;;;3.05;;
10845;SDS011;5476;51.540;7.186;2022-09-09T03:25:18;6.43;;;2.80;;
10845;SDS011;5476;51.540;7.186;2022-09-09T03:27:45;3.75;;;2.35;;
10845;SDS011;5476;51.540;7.186;2022-09-09T03:30:12;3.53;;;2.38;;
10845;SDS011;5476;51.540;7.186;2022-09-09T03:32:40;6.00;;;2.28;;
10845;SDS011;5476;51.540;7.186;2022-09-09T03:35:07;3.70;;;2.33;;
10845;SDS011;5476;51.540;7.186;2022-09-09T03:37:36;4.43;;;2.50;;
10845;SDS011;5476;51.540;7.186;2022-09-09T03:40:04;4.55;;;2.50;;
10845;SDS011;5476;51.540;7.186;2022-09-09T03:42:32;3.22;;;1.98;;
10845;SDS011;5476;51.540;7.186;2022-09-09T03:44:59;4.47;;;2.20;;
10845;SDS011;5476;51.540;7.186;2022-09-09T03:47:26;6.45;;;2.10;;
10845;SDS011;5476;51.540;7.186;2022-09-09T03:49:54;5.65;;;2.22;;
10845;SDS011;5476;51.540;7.186;2022-09-09T03:52:21;3.20;;;2.05;;
10845;SDS011;5476;51.540;7.186;2022-09-09T03:54:51;6.40;;;2.03;;
10845;SDS011;5476;51.540;7.186;2022-09-09T03:57:18;2.95;;;2.00;;
10845;SDS011;5476;51.540;7.186;2022-09-09T03:59:46;3.63;;;1.92;;
10845;SDS011;5476;51.540;7.186;2022-09-09T04:02:13;2.22;;;1.77;;
10845;SDS011;5476;51.540;7.186;2022-09-09T04:04:41;4.13;;;2.00;;
10845;SDS011;5476;51.540;7.186;2022-09-09T04:07:07;2.42;;;1.88;;
10845;SDS011;5476;51.540;7.186;2022-09-09T04:09:36;4.55;;;1.88;;
10845;SDS011;5476;51.540;7.186;2022-09-09T04:12:05;5.82;;;2.10;;
10845;SDS011;5476;51.540;7.186;2022-09-09T04:14:32;3.70;;;2.00;;
10845;SDS011;5476;51.540;7.186;2022-09-09T04:17:00;5.10;;;2.10;;
10845;SDS011;5476;51.540;7.186;2022-09-09T04:19:31;5.20;;;2.08;;
10845;SDS011;5476;51.540;7.186;2022-09-09T04:21:58;4.53;;;2.05;;
10845;SDS011;5476;51.540;7.186;2022-09-09T04:24:25;4.72;;;1.98;;
10845;SDS011;5476;51.540;7.186;2022-09-09T04:26:54;4.25;;;1.85;;
10845;SDS011;5476;51.540;7.186;2022-09-09T04:29:22;3.72;;;2.17;;
10845;SDS011;5476;51.540;7.186;2022-09-09T04:31:50;3.85;;;2.03;;
10845;SDS011;5476;51.540;7.186;2022-09-09T04:34:18;4.93;;;1.90;;
10845;SDS011;5476;51.540;7.186;2022-09-09T04:36:45;3.58;;;1.83;;
10845;SDS011;5476;51.540;7.186;2022-09-09T04:39:12;3.65;;;2.10;;
10845;SDS011;5476;51.540;7.186;2022-09-09T04:41:39;4.55;;;2.38;;
10845;SDS011;5476;51.540;7.186;2022-09-09T04:44:06;5.95;;;2.50;;
10845;SDS011;5476;51.540;7.186;2022-09-09T04:46:36;8.88;;;3.10;;
10845;SDS011;5476;51.540;7.186;2022-09-09T04:49:03;5.63;;;2.78;;
10845;SDS011;5476;51.540;7.186;2022-09-09T04:51:31;3.47;;;2.60;;
10845;SDS011;5476;51.540;7.186;2022-09-09T04:53:57;4.38;;;3.00;;
10845;SDS011;5476;51.540;7.186;2022-09-09T04:56:25;4.88;;;3.13;;
10845;SDS011;5476;51.540;7.186;2022-09-09T04:58:53;10.70;;;3.67;;
10845;SDS011;5476;51.540;7.186;2022-09-09T05:01:20;5.38;;;2.70;;
10845;SDS011;5476;51.540;7.186;2022-09-09T05:03:50;3.95;;;3.20;;
10845;SDS011;5476;51.540;7.186;2022-09-09T05:06:18;6.25;;;2.67;;
10845;SDS011;5476;51.540;7.186;2022-09-09T05:08:47;5.18;;;2.75;;
10845;SDS011;5476;51.540;7.186;2022-09-09T05:11:18;8.50;;;3.40;;
10845;SDS011;5476;51.540;7.186;2022-09-09T05:13:46;5.55;;;3.00;;
10845;SDS011;5476;51.540;7.186;2022-09-09T05:16:15;3.90;;;2.65;;
10845;SDS011;5476;51.540;7.186;2022-09-09T05:18:43;6.40;;;2.90;;
10845;SDS011;5476;51.540;7.186;2022-09-09T05:21:13;7.40;;;2.55;;
10845;SDS011;5476;51.540;7.186;2022-09-09T05:23:40;4.65;;;2.50;;
10845;SDS011;5476;51.540;7.186;2022-09-09T05:26:09;6.82;;;2.67;;
10845;SDS011;5476;51.540;7.186;2022-09-09T05:28:38;7.03;;;3.00;;
10845;SDS011;5476;51.540;7.186;2022-09-09T05:31:07;7.65;;;2.72;;
10845;SDS011;5476;51.540;7.186;2022-09-09T05:33:36;7.47;;;2.40;;
10845;SDS011;5476;51.540;7.186;2022-09-09T05:36:06;4.30;;;2.47;;
10845;SDS011;5476;51.540;7.186;2022-09-09T05:38:35;4.05;;;2.50;;
10845;SDS011;5476;51.540;7.186;2022-09-09T05:41:03;5.47;;;2.40;;
10845;SDS011;5476;51.540;7.186;2022-09-09T05:43:30;5.80;;;2.28;;
10845;SDS011;5476;51.540;7.186;2022-09-09T05:46:01;7.07;;;2.50;;
10845;SDS011;5476;51.540;7.186;2022-09-09T05:48:29;8.63;;;2.50;;
10845;SDS011;5476;51.540;7.186;2022-09-09T05:50:57;4.18;;;2.65;;
10845;SDS011;5476;51.540;7.186;2022-09-09T05:53:24;7.70;;;3.05;;
10845;SDS011;5476;51.540;7.186;2022-09-09T05:55:59;5.40;;;2.30;;
10845;SDS011;5476;51.540;7.186;2022-09-09T05:58:28;5.43;;;2.60;;
10845;SDS011;5476;51.540;7.186;2022-09-09T06:01:00;5.07;;;2.42;;
10845;SDS011;5476;51.540;7.186;2022-09-09T06:03:28;6.75;;;2.13;;
10845;SDS011;5476;51.540;7.186;2022-09-09T06:05:58;4.68;;;2.67;;
10845;SDS011;5476;51.540;7.186;2022-09-09T06:08:25;4.60;;;2.30;;
10845;SDS011;5476;51.540;7.186;2022-09-09T06:10:53;6.50;;;2.35;;
10845;SDS011;5476;51.540;7.186;2022-09-09T06:13:22;3.95;;;2.30;;
10845;SDS011;5476;51.540;7.186;2022-09-09T06:15:50;6.15;;;2.65;;
10845;SDS011;5476;51.540;7.186;2022-09-09T06:18:17;6.78;;;2.50;;
10845;SDS011;5476;51.540;7.186;2022-09-09T06:20:53;5.22;;;2.42;;
10845;SDS011;5476;51.540;7.186;2022-09-09T06:23:20;5.75;;;2.28;;
10845;SDS011;5476;51.540;7.186;2022-09-09T06:25:47;6.70;;;2.80;;
10845;SDS011;5476;51.540;7.186;2022-09-09T06:28:16;7.78;;;2.30;;
10845;SDS011;5476;51.540;7.186;2022-09-09T06:30:44;5.88;;;2.75;;
10845;SDS011;5476;51.540;7.186;2022-09-09T06:33:12;3.30;;;2.15;;
10845;SDS011;5476;51.540;7.186;2022-09-09T06:35:40;7.07;;;2.30;;
10845;SDS011;5476;51.540;7.186;2022-09-09T06:38:07;6.25;;;2.47;;
10845;SDS011;5476;51.540;7.186;2022-09-09T06:40:34;13.02;;;2.55;;
10845;SDS011;5476;51.540;7.186;2022-09-09T06:43:01;8.38;;;2.17;;
10845;SDS011;5476;51.540;7.186;2022-09-09T06:45:29;6.28;;;2.30;;
10845;SDS011;5476;51.540;7.186;2022-09-09T06:47:57;5.63;;;2.40;;
10845;SDS011;5476;51.540;7.186;2022-09-09T06:50:25;6.20;;;2.35;;
10845;SDS011;5476;51.540;7.186;2022-09-09T06:52:53;7.75;;;2.60;;
10845;SDS011;5476;51.540;7.186;2022-09-09T06:55:20;6.40;;;2.30;;
10845;SDS011;5476;51.540;7.186;2022-09-09T06:57:47;3.33;;;2.15;;
10845;SDS011;5476;51.540;7.186;2022-09-09T07:00:16;4.75;;;1.95;;
10845;SDS011;5476;51.540;7.186;2022-09-09T07:02:43;7.45;;;2.20;;
10845;SDS011;5476;51.540;7.186;2022-09-09T07:05:13;6.93;;;2.13;;
10845;SDS011;5476;51.540;7.186;2022-09-09T07:07:40;8.10;;;2.35;;
10845;SDS011;5476;51.540;7.186;2022-09-09T07:10:08;6.75;;;2.20;;
10845;SDS011;5476;51.540;7.186;2022-09-09T07:12:35;6.75;;;1.95;;
10845;SDS011;5476;51.540;7.186;2022-09-09T07:15:03;7.95;;;2.13;;
10845;SDS011;5476;51.540;7.186;2022-09-09T07:17:31;4.32;;;1.98;;
10845;SDS011;5476;51.540;7.186;2022-09-09T07:19:58;6.45;;;2.03;;
10845;SDS011;5476;51.540;7.186;2022-09-09T07:22:26;5.78;;;1.95;;
10845;SDS011;5476;51.540;7.186;2022-09-09T07:24:54;5.25;;;2.30;;
10845;SDS011;5476;51.540;7.186;2022-09-09T07:27:21;3.45;;;1.95;;
10845;SDS011;5476;51.540;7.186;2022-09-09T07:29:48;3.88;;;1.48;;
10845;SDS011;5476;51.540;7.186;2022-09-09T07:32:15;7.03;;;1.80;;
10845;SDS011;5476;51.540;7.186;2022-09-09T07:34:42;6.00;;;1.80;;
10845;SDS011;5476;51.540;7.186;2022-09-09T07:37:10;4.30;;;1.58;;
10845;SDS011;5476;51.540;7.186;2022-09-09T07:39:39;4.43;;;1.52;;
10845;SDS011;5476;51.540;7.186;2022-09-09T07:42:07;7.05;;;1.65;;
10845;SDS011;5476;51.540;7.186;2022-09-09T07:44:36;6.18;;;1.80;;
10845;SDS011;5476;51.540;7.186;2022-09-09T07:47:05;3.75;;;1.70;;
10845;SDS011;5476;51.540;7.186;2022-09-09T07:49:32;2.78;;;1.48;;
10845;SDS011;5476;51.540;7.186;2022-09-09T07:51:59;6.25;;;1.70;;
10845;SDS011;5476;51.540;7.186;2022-09-09T07:54:27;4.38;;;1.23;;
10845;SDS011;5476;51.540;7.186;2022-09-09T07:56:55;3.78;;;1.63;;
10845;SDS011;5476;51.540;7.186;2022-09-09T07:59:23;4.82;;;1.48;;
10845;SDS011;5476;51.540;7.186;2022-09-09T08:01:50;6.60;;;1.33;;
10845;SDS011;5476;51.540;7.186;2022-09-09T08:04:19;5.47;;;2.05;;
10845;SDS011;5476;51.540;7.186;2022-09-09T08:06:48;4.93;;;1.70;;
10845;SDS011;5476;51.540;7.186;2022-09-09T08:09:17;4.07;;;1.58;;
10845;SDS011;5476;51.540;7.186;2022-09-09T08:11:44;3.42;;;1.58;;
10845;SDS011;5476;51.540;7.186;2022-09-09T08:14:13;3.45;;;1.45;;
10845;SDS011;5476;51.540;7.186;2022-09-09T08:16:42;3.58;;;1.60;;
10845;SDS011;5476;51.540;7.186;2022-09-09T08:19:10;5.05;;;1.40;;
10845;SDS011;5476;51.540;7.186;2022-09-09T08:21:38;4.25;;;1.52;;
10845;SDS011;5476;51.540;7.186;2022-09-09T08:24:06;5.10;;;1.48;;
10845;SDS011;5476;51.540;7.186;2022-09-09T08:26:35;2.72;;;1.35;;
10845;SDS011;5476;51.540;7.186;2022-09-09T08:29:04;4.47;;;1.25;;
10845;SDS011;5476;51.540;7.186;2022-09-09T08:31:33;4.82;;;1.65;;
10845;SDS011;5476;51.540;7.186;2022-09-09T08:34:02;6.22;;;1.65;;
10845;SDS011;5476;51.540;7.186;2022-09-09T08:36:30;5.22;;;1.48;;
10845;SDS011;5476;51.540;7.186;2022-09-09T08:38:58;3.17;;;1.38;;
10845;SDS011;5476;51.540;7.186;2022-09-09T08:41:38;2.53;;;1.45;;
10845;SDS011;5476;51.540;7.186;2022-09-09T08:44:12;3.88;;;1.60;;
10845;SDS011;5476;51.540;7.186;2022-09-09T08:46:49;6.32;;;1.88;;
10845;SDS011;5476;51.540;7.186;2022-09-09T08:49:30;6.22;;;1.90;;
10845;SDS011;5476;51.540;7.186;2022-09-09T08:52:02;3.88;;;1.67;;
10845;SDS011;5476;51.540;7.186;2022-09-09T08:54:32;4.43;;;1.60;;
10845;SDS011;5476;51.540;7.186;2022-09-09T08:57:01;3.45;;;1.95;;
10845;SDS011;5476;51.540;7.186;2022-09-09T08:59:28;6.70;;;2.13;;
10845;SDS011;5476;51.540;7.186;2022-09-09T09:02:00;4.13;;;1.98;;
10845;SDS011;5476;51.540;7.186;2022-09-09T09:04:33;4.88;;;1.90;;
10845;SDS011;5476;51.540;7.186;2022-09-09T09:07:06;5.82;;;2.33;;
10845;SDS011;5476;51.540;7.186;2022-09-09T09:12:26;5.55;;;2.03;;
10845;SDS011;5476;51.540;7.186;2022-09-09T09:14:54;3.70;;;1.90;;
10845;SDS011;5476;51.540;7.186;2022-09-09T09:17:26;4.55;;;1.98;;
10845;SDS011;5476;51.540;7.186;2022-09-09T09:19:56;5.57;;;1.90;;
10845;SDS011;5476;51.540;7.186;2022-09-09T09:22:26;5.28;;;1.80;;
10845;SDS011;5476;51.540;7.186;2022-09-09T09:24:59;4.10;;;1.83;;
10845;SDS011;5476;51.540;7.186;2022-09-09T09:27:31;4.75;;;1.85;;
10845;SDS011;5476;51.540;7.186;2022-09-09T09:29:59;4.03;;;2.00;;
10845;SDS011;5476;51.540;7.186;2022-09-09T09:32:30;6.20;;;1.98;;
10845;SDS011;5476;51.540;7.186;2022-09-09T09:35:00;3.50;;;1.60;;
10845;SDS011;5476;51.540;7.186;2022-09-09T09:37:31;8.73;;;1.90;;
10845;SDS011;5476;51.540;7.186;2022-09-09T09:40:10;5.43;;;2.30;;
10845;SDS011;5476;51.540;7.186;2022-09-09T09:42:47;8.20;;;2.53;;
10845;SDS011;5476;51.540;7.186;2022-09-09T09:45:16;4.60;;;1.77;;
10845;SDS011;5476;51.540;7.186;2022-09-09T09:48:02;3.28;;;1.80;;
10845;SDS011;5476;51.540;7.186;2022-09-09T09:50:31;3.55;;;1.75;;
10845;SDS011;5476;51.540;7.186;2022-09-09T09:52:59;3.80;;;1.65;;
10845;SDS011;5476;51.540;7.186;2022-09-09T09:55:27;4.60;;;1.65;;
10845;SDS011;5476;51.540;7.186;2022-09-09T09:58:00;3.20;;;1.58;;
10845;SDS011;5476;51.540;7.186;2022-09-09T10:00:29;3.28;;;1.70;;
10845;SDS011;5476;51.540;7.186;2022-09-09T10:02:56;4.10;;;2.13;;
10845;SDS011;5476;51.540;7.186;2022-09-09T10:05:26;4.82;;;1.67;;
10845;SDS011;5476;51.540;7.186;2022-09-09T10:08:01;3.70;;;1.58;;
10845;SDS011;5476;51.540;7.186;2022-09-09T10:10:32;8.07;;;2.65;;
10845;SDS011;5476;51.540;7.186;2022-09-09T10:13:02;4.88;;;1.60;;
10845;SDS011;5476;51.540;7.186;2022-09-09T10:15:36;2.90;;;1.38;;
10845;SDS011;5476;51.540;7.186;2022-09-09T10:18:13;4.22;;;1.50;;
10845;SDS011;5476;51.540;7.186;2022-09-09T10:23:26;4.47;;;1.30;;
10845;SDS011;5476;51.540;7.186;2022-09-09T10:26:11;4.45;;;1.30;;
10845;SDS011;5476;51.540;7.186;2022-09-09T10:28:57;3.58;;;1.63;;
10845;SDS011;5476;51.540;7.186;2022-09-09T10:31:37;6.25;;;1.77;;
10845;SDS011;5476;51.540;7.186;2022-09-09T10:34:11;4.07;;;1.70;;
10845;SDS011;5476;51.540;7.186;2022-09-09T10:36:44;5.20;;;1.60;;
10845;SDS011;5476;51.540;7.186;2022-09-09T10:39:18;3.47;;;1.30;;
10845;SDS011;5476;51.540;7.186;2022-09-09T10:41:59;2.42;;;1.23;;
10845;SDS011;5476;51.540;7.186;2022-09-09T10:44:41;4.82;;;1.30;;
10845;SDS011;5476;51.540;7.186;2022-09-09T10:47:35;2.08;;;1.05;;
10845;SDS011;5476;51.540;7.186;2022-09-09T10:50:19;4.18;;;1.40;;
10845;SDS011;5476;51.540;7.186;2022-09-09T10:53:07;3.85;;;1.20;;
10845;SDS011;5476;51.540;7.186;2022-09-09T10:55:40;4.00;;;1.42;;
10845;SDS011;5476;51.540;7.186;2022-09-09T10:58:10;3.47;;;1.60;;
10845;SDS011;5476;51.540;7.186;2022-09-09T11:00:42;4.47;;;1.60;;
10845;SDS011;5476;51.540;7.186;2022-09-09T11:03:14;3.05;;;1.30;;
10845;SDS011;5476;51.540;7.186;2022-09-09T11:05:45;3.17;;;1.58;;
10845;SDS011;5476;51.540;7.186;2022-09-09T11:08:17;2.10;;;1.20;;
10845;SDS011;5476;51.540;7.186;2022-09-09T11:10:48;4.13;;;1.20;;
10845;SDS011;5476;51.540;7.186;2022-09-09T11:13:21;2.53;;;1.30;;
10845;SDS011;5476;51.540;7.186;2022-09-09T11:15:53;4.68;;;1.55;;
10845;SDS011;5476;51.540;7.186;2022-09-09T11:18:22;2.80;;;1.20;;
10845;SDS011;5476;51.540;7.186;2022-09-09T11:20:51;3.45;;;1.33;;
10845;SDS011;5476;51.540;7.186;2022-09-09T11:23:22;3.03;;;1.10;;
10845;SDS011;5476;51.540;7.186;2022-09-09T11:25:55;2.92;;;1.13;;
10845;SDS011;5476;51.540;7.186;2022-09-09T11:28:32;2.58;;;1.38;;
10845;SDS011;5476;51.540;7.186;2022-09-09T11:31:08;3.10;;;1.20;;
10845;SDS011;5476;51.540;7.186;2022-09-09T11:33:42;1.92;;;1.10;;
10845;SDS011;5476;51.540;7.186;2022-09-09T11:39:02;4.28;;;1.55;;
10845;SDS011;5476;51.540;7.186;2022-09-09T11:41:47;2.10;;;1.00;;
10845;SDS011;5476;51.540;7.186;2022-09-09T11:44:16;4.95;;;1.23;;
10845;SDS011;5476;51.540;7.186;2022-09-09T11:46:48;2.58;;;1.17;;
10845;SDS011;5476;51.540;7.186;2022-09-09T11:49:25;3.22;;;1.20;;
10845;SDS011;5476;51.540;7.186;2022-09-09T11:51:53;2.00;;;1.08;;
10845;SDS011;5476;51.540;7.186;2022-09-09T11:54:30;3.28;;;1.30;;
10845;SDS011;5476;51.540;7.186;2022-09-09T11:56:58;3.33;;;1.23;;
10845;SDS011;5476;51.540;7.186;2022-09-09T11:59:26;2.38;;;1.20;;
10845;SDS011;5476;51.540;7.186;2022-09-09T12:01:55;1.58;;;1.00;;
10845;SDS011;5476;51.540;7.186;2022-09-09T12:04:31;2.85;;;1.10;;
10845;SDS011;5476;51.540;7.186;2022-09-09T12:07:00;3.65;;;1.65;;
10845;SDS011;5476;51.540;7.186;2022-09-09T12:09:35;4.30;;;1.85;;
10845;SDS011;5476;51.540;7.186;2022-09-09T12:15:00;3.15;;;1.00;;
10845;SDS011;5476;51.540;7.186;2022-09-09T12:17:43;5.00;;;1.30;;
10845;SDS011;5476;51.540;7.186;2022-09-09T12:20:12;2.97;;;1.10;;
10845;SDS011;5476;51.540;7.186;2022-09-09T12:22:44;3.05;;;1.40;;
10845;SDS011;5476;51.540;7.186;2022-09-09T12:25:23;3.33;;;1.20;;
10845;SDS011;5476;51.540;7.186;2022-09-09T12:28:01;2.42;;;1.20;;
10845;SDS011;5476;51.540;7.186;2022-09-09T12:30:30;2.00;;;1.15;;
10845;SDS011;5476;51.540;7.186;2022-09-09T12:33:06;2.67;;;1.17;;
10845;SDS011;5476;51.540;7.186;2022-09-09T12:35:35;6.07;;;3.83;;
10845;SDS011;5476;51.540;7.186;2022-09-09T12:38:03;2.40;;;1.30;;
10845;SDS011;5476;51.540;7.186;2022-09-09T12:40:36;2.13;;;1.20;;
10845;SDS011;5476;51.540;7.186;2022-09-09T12:43:16;3.10;;;1.27;;
10845;SDS011;5476;51.540;7.186;2022-09-09T12:45:46;2.42;;;1.20;;
10845;SDS011;5476;51.540;7.186;2022-09-09T12:48:15;1.33;;;0.85;;
10845;SDS011;5476;51.540;7.186;2022-09-09T12:50:45;3.90;;;1.67;;
10845;SDS011;5476;51.540;7.186;2022-09-09T12:53:15;3.72;;;1.13;;
10845;SDS011;5476;51.540;7.186;2022-09-09T12:55:49;2.10;;;1.13;;
10845;SDS011;5476;51.540;7.186;2022-09-09T12:58:18;4.05;;;1.50;;
10845;SDS011;5476;51.540;7.186;2022-09-09T13:00:49;4.22;;;1.20;;
10845;SDS011;5476;51.540;7.186;2022-09-09T13:03:18;4.10;;;1.60;;
10845;SDS011;5476;51.540;7.186;2022-09-09T13:05:46;4.65;;;1.20;;
10845;SDS011;5476;51.540;7.186;2022-09-09T13:08:13;1.75;;;1.00;;
10845;SDS011;5476;51.540;7.186;2022-09-09T13:10:46;3.85;;;1.30;;
10845;SDS011;5476;51.540;7.186;2022-09-09T13:13:22;1.52;;;1.08;;
10845;SDS011;5476;51.540;7.186;2022-09-09T13:15:52;2.20;;;1.38;;
10845;SDS011;5476;51.540;7.186;2022-09-09T13:18:21;1.33;;;1.10;;
10845;SDS011;5476;51.540;7.186;2022-09-09T13:20:49;3.20;;;1.25;;
10845;SDS011;5476;51.540;7.186;2022-09-09T13:23:17;2.00;;;1.23;;
10845;SDS011;5476;51.540;7.186;2022-09-09T13:25:52;4.38;;;1.30;;
10845;SDS011;5476;51.540;7.186;2022-09-09T13:28:21;3.75;;;1.40;;
10845;SDS011;5476;51.540;7.186;2022-09-09T13:30:55;2.90;;;1.30;;
10845;SDS011;5476;51.540;7.186;2022-09-09T13:33:29;2.30;;;1.15;;
10845;SDS011;5476;51.540;7.186;2022-09-09T13:35:58;2.13;;;1.20;;
10845;SDS011;5476;51.540;7.186;2022-09-09T13:38:28;2.00;;;1.02;;
10845;SDS011;5476;51.540;7.186;2022-09-09T13:40:56;2.22;;;1.13;;
10845;SDS011;5476;51.540;7.186;2022-09-09T13:43:26;2.63;;;1.70;;
10845;SDS011;5476;51.540;7.186;2022-09-09T13:45:54;1.70;;;1.00;;
10845;SDS011;5476;51.540;7.186;2022-09-09T13:48:22;8.57;;;4.43;;
10845;SDS011;5476;51.540;7.186;2022-09-09T13:50:54;4.63;;;1.70;;
10845;SDS011;5476;51.540;7.186;2022-09-09T13:53:23;7.10;;;2.75;;
10845;SDS011;5476;51.540;7.186;2022-09-09T13:55:51;7.05;;;2.40;;
10845;SDS011;5476;51.540;7.186;2022-09-09T13:58:18;3.97;;;1.70;;
10845;SDS011;5476;51.540;7.186;2022-09-09T14:00:48;7.78;;;2.72;;
10845;SDS011;5476;51.540;7.186;2022-09-09T14:03:16;6.63;;;2.55;;
10845;SDS011;5476;51.540;7.186;2022-09-09T14:05:47;5.40;;;1.80;;
10845;SDS011;5476;51.540;7.186;2022-09-09T14:08:20;3.75;;;1.85;;
10845;SDS011;5476;51.540;7.186;2022-09-09T14:10:50;4.20;;;1.52;;
10845;SDS011;5476;51.540;7.186;2022-09-09T14:13:17;5.70;;;2.20;;
10845;SDS011;5476;51.540;7.186;2022-09-09T14:15:47;5.65;;;2.40;;
10845;SDS011;5476;51.540;7.186;2022-09-09T14:18:14;3.65;;;2.00;;
10845;SDS011;5476;51.540;7.186;2022-09-09T14:20:41;3.40;;;1.88;;
10845;SDS011;5476;51.540;7.186;2022-09-09T14:23:10;3.60;;;1.73;;
10845;SDS011;5476;51.540;7.186;2022-09-09T14:25:39;3.10;;;1.58;;
10845;SDS011;5476;51.540;7.186;2022-09-09T14:28:07;4.13;;;1.50;;
10845;SDS011;5476;51.540;7.186;2022-09-09T14:30:34;4.05;;;1.60;;
10845;SDS011;5476;51.540;7.186;2022-09-09T14:33:03;3.42;;;1.50;;
10845;SDS011;5476;51.540;7.186;2022-09-09T14:35:30;3.70;;;1.67;;
10845;SDS011;5476;51.540;7.186;2022-09-09T14:37:58;4.10;;;1.60;;
10845;SDS011;5476;51.540;7.186;2022-09-09T14:40:26;4.80;;;1.70;;
10845;SDS011;5476;51.540;7.186;2022-09-09T14:42:53;3.63;;;1.83;;
10845;SDS011;5476;51.540;7.186;2022-09-09T14:45:21;3.45;;;1.73;;
10845;SDS011;5476;51.540;7.186;2022-09-09T14:47:49;3.28;;;1.60;;
10845;SDS011;5476;51.540;7.186;2022-09-09T14:50:18;3.25;;;1.75;;
10845;SDS011;5476;51.540;7.186;2022-09-09T14:52:46;4.55;;;1.92;;
10845;SDS011;5476;51.540;7.186;2022-09-09T14:55:13;3.72;;;1.85;;
10845;SDS011;5476;51.540;7.186;2022-09-09T14:57:40;5.18;;;2.35;;
10845;SDS011;5476;51.540;7.186;2022-09-09T15:00:08;6.25;;;2.08;;
10845;SDS011;5476;51.540;7.186;2022-09-09T15:02:36;4.30;;;2.00;;
10845;SDS011;5476;51.540;7.186;2022-09-09T15:05:03;5.38;;;2.00;;
10845;SDS011;5476;51.540;7.186;2022-09-09T15:07:32;2.97;;;1.77;;
10845;SDS011;5476;51.540;7.186;2022-09-09T15:09:59;5.00;;;1.73;;
10845;SDS011;5476;51.540;7.186;2022-09-09T15:12:29;3.40;;;1.90;;
10845;SDS011;5476;51.540;7.186;2022-09-09T15:14:58;5.18;;;2.08;;
10845;SDS011;5476;51.540;7.186;2022-09-09T15:17:25;3.38;;;2.20;;
10845;SDS011;5476;51.540;7.186;2022-09-09T15:19:53;6.47;;;2.20;;
10845;SDS011;5476;51.540;7.186;2022-09-09T15:22:21;4.35;;;2.50;;
10845;SDS011;5476;51.540;7.186;2022-09-09T15:24:50;3.35;;;2.10;;
10845;SDS011;5476;51.540;7.186;2022-09-09T15:27:17;3.45;;;2.13;;
10845;SDS011;5476;51.540;7.186;2022-09-09T15:29:45;3.47;;;1.40;;
10845;SDS011;5476;51.540;7.186;2022-09-09T15:32:12;2.80;;;1.20;;